Aurora, West Virginia
Current Conditions -  °F | °C
As of 3:30 AM on Thursday 18 Dec 2014 (Local Time) from K2G4 Reporting Station
Overcast Overcast  
Wind Chill: 12°   Ceiling: 1200
Heat Index: 21°   Visibility: 10mi
Dew Point: 21°   Wind: 8mph
Humidity: 100%   Direction: 290°WNW
Pressure: 30.03"   Gusts: 20mph
Location:  39.32°N, 79.55°W
Report Text: K2G4 180830Z AUTO 29007G17KT 262V342 10SM OVC012 M06/M06 A3003 RMK AO1
Loading
Personal Weather Stations






























Interactive Weather Map New forecast layout! Learn more

10-Day Weather Forecast

Advertisements
Track Severe Weather on mobile